Polk, Ohio
Current Conditions -  °F | °C
As of 1:33 AM on Tuesday 21 Oct 2014 (Local Time) from KMFD Reporting Station
Haze Haze  
Wind Chill: 51°   Ceiling: 900
Heat Index: 51°   Visibility: 5mi
Dew Point: 50°   Wind: 5mph
Humidity: 96%   Direction: 320°NW
Pressure: 29.85"   Gusts: NA
Location:  40.94°N, 82.22°W
Report Text: KMFD 210533Z AUTO 32004KT 5SM BR OVC009 11/10 A2985 RMK AO2 CIG 006V011 T01060100
Loading
Personal Weather Stations






























Interactive Weather Map
Tropical Storm Tracking
New forecast layout! Learn more

10-Day Weather Forecast

Advertisements
Track Severe Weather on mobile